createdAt,value
2019-01-03T00:02:17.464Z,102066.91
2019-01-03T00:05:08.668Z,102069.21
2019-01-03T00:08:18.348Z,102066.03
2019-01-03T00:11:21.771Z,102066.03
2019-01-03T00:14:24.711Z,102071.81
2019-01-03T00:17:21.319Z,102068.75
2019-01-03T00:20:10.021Z,102070.95
2019-01-03T00:23:00.760Z,102071.20
2019-01-03T00:25:51.458Z,102071.25
2019-01-03T00:28:44.957Z,102077.59
2019-01-03T00:31:34.711Z,102071.30
2019-01-03T00:34:28.437Z,102068.95
2019-01-03T00:37:34.563Z,102076.80
2019-01-03T00:40:20.089Z,102077.93
2019-01-03T00:43:23.322Z,102077.93
2019-01-03T00:46:06.315Z,102083.34
2019-01-03T00:48:57.105Z,102078.19
2019-01-03T00:51:51.862Z,102085.32
2019-01-03T00:54:41.316Z,102094.16
2019-01-03T00:57:40.069Z,102100.06
2019-01-03T01:00:31.556Z,102099.70
2019-01-03T01:03:22.345Z,102108.34
2019-01-03T01:06:12.073Z,102105.22
2019-01-03T01:09:02.038Z,102105.46
2019-01-03T01:12:01.631Z,102117.82
2019-01-03T01:14:48.091Z,102119.86
2019-01-03T01:31:59.836Z,102129.35
2019-01-03T01:35:00.000Z,102135.63
2019-01-03T01:37:50.651Z,102133.75
2019-01-03T01:40:36.049Z,102137.45
2019-01-03T01:43:26.740Z,102137.45
2019-01-03T01:46:24.797Z,102143.87
2019-01-03T01:49:22.054Z,102135.42
2019-01-03T01:52:02.347Z,102137.73
2019-01-03T01:54:53.083Z,102141.10
2019-01-03T01:57:47.730Z,102138.81
2019-01-03T02:00:37.385Z,102142.27
2019-01-03T02:03:27.802Z,102145.22
2019-01-03T02:06:31.093Z,102146.00
2019-01-03T02:12:16.810Z,102138.37
2019-01-03T02:15:13.455Z,102138.37
2019-01-03T02:18:13.471Z,102128.71
2019-01-03T02:21:19.814Z,102130.25
2019-01-03T02:24:10.443Z,102124.86
2019-01-03T02:27:01.469Z,102130.25
2019-01-03T02:29:51.455Z,102124.26
2019-01-03T02:32:42.000Z,102123.68
2019-01-03T02:35:39.991Z,102119.26
2019-01-03T02:38:37.790Z,102119.00
2019-01-03T02:41:28.390Z,102118.27
2019-01-03T02:44:19.334Z,102114.94
2019-01-03T02:47:09.602Z,102117.75
2019-01-03T02:50:06.343Z,102108.75
2019-01-03T02:53:12.605Z,102108.75
2019-01-03T02:56:12.629Z,102103.38
2019-01-03T02:59:02.715Z,102099.84
2019-01-03T03:02:04.461Z,102099.84
2019-01-03T03:04:55.137Z,102099.59
2019-01-03T03:07:45.380Z,102103.66
2019-01-03T03:10:36.033Z,102105.19
2019-01-03T03:13:25.656Z,102103.27
2019-01-03T03:16:15.302Z,102104.14
2019-01-03T03:18:56.528Z,102104.14
2019-01-03T03:21:36.363Z,102107.95
2019-01-03T03:24:30.285Z,102107.47
2019-01-03T03:27:26.844Z,102111.95
2019-01-03T03:30:23.643Z,102113.00
2019-01-03T03:33:13.287Z,102113.20
2019-01-03T03:36:19.586Z,102115.84
2019-01-03T03:39:11.401Z,102102.30
2019-01-03T03:42:00.878Z,102102.30
2019-01-03T03:44:57.745Z,102114.63
2019-01-03T03:47:40.472Z,102114.20
2019-01-03T03:50:30.342Z,102122.56
2019-01-03T03:53:20.418Z,102113.00
2019-01-03T03:56:14.124Z,102125.02
2019-01-03T03:59:04.327Z,102125.48
2019-01-03T04:02:13.723Z,102120.45
2019-01-03T04:05:02.051Z,102120.70
2019-01-03T04:08:01.846Z,102124.91
2019-01-03T04:10:55.371Z,102114.80
2019-01-03T04:14:05.419Z,102114.23
2019-01-03T04:16:55.054Z,102113.52
2019-01-03T04:19:58.332Z,102107.61
2019-01-03T04:22:49.126Z,102108.15
2019-01-03T04:25:39.667Z,102114.32
2019-01-03T04:28:24.917Z,102117.94
2019-01-03T04:31:15.574Z,102117.94
2019-01-03T04:34:05.676Z,102116.47
2019-01-03T04:36:55.982Z,102115.88
2019-01-03T04:39:45.843Z,102115.88
2019-01-03T04:42:29.376Z,102123.72
2019-01-03T04:45:11.905Z,102119.89
2019-01-03T04:48:21.085Z,102120.25
2019-01-03T04:51:30.569Z,102123.66
2019-01-03T04:54:36.788Z,102126.62
2019-01-03T04:57:25.688Z,102130.62
2019-01-03T05:00:15.804Z,102125.05
2019-01-03T05:03:04.434Z,102119.38
2019-01-03T05:05:54.739Z,102115.91
2019-01-03T05:08:44.115Z,102108.55
2019-01-03T05:11:34.517Z,102108.31
2019-01-03T05:14:25.331Z,102106.12
2019-01-03T05:17:16.143Z,102112.13
2019-01-03T05:20:07.553Z,102115.28
2019-01-03T05:22:57.975Z,102116.97
2019-01-03T05:25:47.676Z,102117.19
2019-01-03T05:28:36.657Z,102117.45
2019-01-03T05:31:46.119Z,102117.63
2019-01-03T05:34:46.016Z,102117.63
2019-01-03T05:37:52.413Z,102116.95
2019-01-03T05:40:47.743Z,102109.86
2019-01-03T05:43:36.491Z,102113.58
2019-01-03T05:46:27.988Z,102102.92
2019-01-03T05:49:18.335Z,102104.73
2019-01-03T05:52:15.363Z,102106.47
2019-01-03T05:55:15.335Z,102109.44
2019-01-03T05:58:18.568Z,102114.22
2019-01-03T06:01:10.914Z,102114.20
2019-01-03T06:04:04.493Z,102114.20
2019-01-03T06:06:54.334Z,102111.55
2019-01-03T06:09:44.371Z,102115.86
2019-01-03T06:12:43.784Z,102115.86
2019-01-03T06:15:33.020Z,102119.54
2019-01-03T06:18:31.692Z,102114.63
2019-01-03T06:21:37.116Z,102121.20
2019-01-03T06:24:22.328Z,102123.66
2019-01-03T06:27:11.672Z,102118.48
2019-01-03T06:30:01.654Z,102110.55
2019-01-03T06:32:58.941Z,102113.16
2019-01-03T06:35:48.422Z,102110.79
2019-01-03T06:38:46.736Z,102116.73
2019-01-03T06:41:42.811Z,102121.63
2019-01-03T06:44:36.392Z,102109.75
2019-01-03T06:47:25.475Z,102111.39
2019-01-03T06:50:15.362Z,102119.58
2019-01-03T06:53:11.734Z,102120.58
2019-01-03T06:56:00.316Z,102118.30
2019-01-03T06:58:58.090Z,102121.06
2019-01-03T07:01:36.364Z,102127.69
2019-01-03T07:04:32.404Z,102121.83
2019-01-03T07:07:22.677Z,102115.91
2019-01-03T07:10:31.554Z,102101.96
2019-01-03T07:13:21.830Z,102101.96
2019-01-03T07:16:27.318Z,102118.88
2019-01-03T07:19:22.890Z,102115.90
2019-01-03T07:22:16.382Z,102125.51
2019-01-03T07:25:21.921Z,102128.77
2019-01-03T07:28:25.322Z,102137.79
2019-01-03T07:31:15.837Z,102138.26
2019-01-03T07:34:06.068Z,102144.06
2019-01-03T07:37:02.749Z,102146.78
2019-01-03T07:39:51.426Z,102150.95
2019-01-03T07:42:54.455Z,102151.93
2019-01-03T07:45:44.661Z,102162.56
2019-01-03T07:48:41.080Z,102154.74
2019-01-03T07:51:37.347Z,102154.74
2019-01-03T07:54:26.623Z,102176.86
2019-01-03T07:57:17.003Z,102171.19
2019-01-03T08:00:05.910Z,102171.19
2019-01-03T08:02:54.821Z,102183.70
2019-01-03T08:05:49.367Z,102185.36
2019-01-03T08:08:39.665Z,102187.55
2019-01-03T08:11:29.633Z,102192.76
2019-01-03T08:14:26.529Z,102190.10
2019-01-03T08:17:16.752Z,102190.10
2019-01-03T08:19:58.855Z,102181.05
2019-01-03T08:22:41.749Z,102187.71
2019-01-03T08:25:31.785Z,102182.42
2019-01-03T08:28:16.262Z,102184.64
2019-01-03T08:31:15.417Z,102180.39
2019-01-03T08:34:04.588Z,102182.08
2019-01-03T08:36:54.510Z,102176.17
2019-01-03T08:39:43.760Z,102176.17
2019-01-03T08:42:31.122Z,102181.11
2019-01-03T08:45:33.701Z,102179.55
2019-01-03T08:48:36.311Z,102186.02
2019-01-03T08:51:25.877Z,102182.63
2019-01-03T08:54:14.998Z,102184.92
2019-01-03T08:57:17.337Z,102182.86
2019-01-03T09:00:08.319Z,102186.67
2019-01-03T09:02:57.581Z,102181.11
2019-01-03T09:05:51.717Z,102161.49
2019-01-03T09:08:49.114Z,102161.49
2019-01-03T09:11:42.376Z,102180.16
2019-01-03T09:14:31.414Z,102178.98
2019-01-03T09:17:30.428Z,102182.98
2019-01-03T09:20:16.314Z,102181.27
2019-01-03T09:23:06.427Z,102188.66
2019-01-03T09:25:56.301Z,102187.44
2019-01-03T09:28:53.788Z,102177.70
2019-01-03T09:31:43.301Z,102185.35
2019-01-03T09:34:49.313Z,102184.26
2019-01-03T09:37:38.350Z,102181.55
2019-01-03T09:40:23.321Z,102178.27
2019-01-03T09:43:15.846Z,102173.97
2019-01-03T09:45:47.754Z,102163.13
2019-01-03T09:48:18.488Z,102160.19
2019-01-03T09:50:50.309Z,102169.33
2019-01-03T09:53:21.818Z,102162.95
2019-01-03T09:55:53.355Z,102164.56
2019-01-03T09:58:25.010Z,102164.52
2019-01-03T10:00:56.699Z,102158.13
2019-01-03T10:03:27.472Z,102153.56
2019-01-03T10:05:59.314Z,102152.61
2019-01-03T10:08:31.578Z,102147.28
2019-01-03T10:11:03.305Z,102139.77
2019-01-03T10:13:34.853Z,102139.77
2019-01-03T10:16:06.646Z,102145.09
2019-01-03T10:18:37.914Z,102140.69
2019-01-03T10:21:09.778Z,102138.68
2019-01-03T10:23:40.458Z,102131.80
2019-01-03T10:26:12.567Z,102125.72
2019-01-03T10:28:44.361Z,102128.84
2019-01-03T10:31:16.031Z,102128.84
2019-01-03T10:33:47.762Z,102120.09
2019-01-03T10:36:24.153Z,102115.38
2019-01-03T10:38:51.825Z,102115.78
2019-01-03T10:41:23.742Z,102121.55
2019-01-03T10:43:54.483Z,102120.85
2019-01-03T10:46:26.311Z,102120.95
2019-01-03T10:48:57.836Z,102122.91
2019-01-03T10:51:29.638Z,102133.40
2019-01-03T10:54:01.364Z,102117.98
2019-01-03T10:56:33.064Z,102117.98
2019-01-03T10:59:04.776Z,102132.80
2019-01-03T11:01:35.504Z,102141.53
2019-01-03T11:04:07.720Z,102140.67
2019-01-03T11:06:38.490Z,102144.98
2019-01-03T11:09:10.305Z,102137.97
2019-01-03T11:11:41.813Z,102145.71
2019-01-03T11:14:16.369Z,102143.63
2019-01-03T11:16:48.058Z,102139.57
2019-01-03T11:19:19.745Z,102137.31
2019-01-03T11:21:50.648Z,102133.75
2019-01-03T11:24:22.649Z,102125.02
2019-01-03T11:26:54.407Z,102113.31
2019-01-03T11:29:26.398Z,102113.31
2019-01-03T11:31:58.061Z,102126.62
2019-01-03T11:34:29.756Z,102122.42
2019-01-03T11:37:01.760Z,102125.88
2019-01-03T11:39:32.693Z,102121.91
2019-01-03T11:42:03.710Z,102126.06
2019-01-03T11:44:34.450Z,102123.91
2019-01-03T11:47:06.264Z,102117.49
2019-01-03T11:49:37.823Z,102117.14
2019-01-03T11:52:10.668Z,102111.36
2019-01-03T11:54:42.693Z,102114.17
2019-01-03T11:57:14.773Z,102108.15
2019-01-03T11:59:46.763Z,102108.02
2019-01-03T12:02:17.455Z,102104.94
2019-01-03T12:04:49.302Z,102111.11
2019-01-03T12:07:21.577Z,102104.80
2019-01-03T12:09:53.362Z,102095.55
2019-01-03T12:12:25.028Z,102095.55
2019-01-03T12:14:56.736Z,102101.23
2019-01-03T12:17:27.748Z,102102.48
2019-01-03T12:19:58.926Z,102088.57
2019-01-03T12:22:30.739Z,102090.17
2019-01-03T12:25:01.446Z,102091.28
2019-01-03T12:27:33.297Z,102089.67
2019-01-03T12:30:04.866Z,102092.53
2019-01-03T12:32:36.685Z,102089.03
2019-01-03T12:35:08.259Z,102086.22
2019-01-03T12:37:40.542Z,102093.50
2019-01-03T12:40:12.622Z,102093.60
2019-01-03T12:42:44.408Z,102079.69
2019-01-03T12:45:16.306Z,102079.69
2019-01-03T12:47:47.833Z,102090.39
2019-01-03T12:50:19.635Z,102086.08
2019-01-03T12:52:50.514Z,102089.89
2019-01-03T12:55:22.302Z,102084.86
2019-01-03T12:57:53.824Z,102092.74
2019-01-03T13:00:25.583Z,102093.59
2019-01-03T13:02:57.295Z,102100.73
2019-01-03T13:05:28.894Z,102100.73
2019-01-03T13:08:01.310Z,102101.63
2019-01-03T13:10:33.300Z,102100.13
2019-01-03T13:13:04.892Z,102101.63
2019-01-03T13:15:36.651Z,102100.87
2019-01-03T13:18:08.802Z,102089.28
2019-01-03T13:20:40.546Z,102089.28
2019-01-03T13:23:12.310Z,102099.52
2019-01-03T13:25:43.878Z,102099.52
2019-01-03T13:28:15.729Z,102108.50
2019-01-03T13:30:46.629Z,102106.29
2019-01-03T13:33:17.708Z,102102.09
2019-01-03T13:35:48.281Z,102094.84
2019-01-03T13:38:20.402Z,102097.31
2019-01-03T13:40:52.063Z,102106.30
2019-01-03T13:43:23.781Z,102100.52
2019-01-03T13:45:54.450Z,102098.41
2019-01-03T13:48:26.056Z,102097.06
2019-01-03T13:50:57.830Z,102100.98
2019-01-03T13:53:29.721Z,102102.69
2019-01-03T13:56:01.740Z,102104.69
2019-01-03T13:58:32.455Z,102107.76
2019-01-03T14:01:04.589Z,102105.05
2019-01-03T14:03:36.392Z,102111.72
2019-01-03T14:06:08.297Z,102111.72
2019-01-03T14:08:40.369Z,102122.06
2019-01-03T14:11:15.271Z,102120.34
2019-01-03T14:13:47.989Z,102120.45
2019-01-03T14:16:19.773Z,102129.67
2019-01-03T14:18:59.869Z,102124.59
2019-01-03T14:21:31.760Z,102131.48
2019-01-03T14:24:02.523Z,102131.63
2019-01-03T14:26:34.406Z,102135.34
2019-01-03T14:29:06.459Z,102134.95
2019-01-03T14:31:44.003Z,102129.92
2019-01-03T14:34:20.916Z,102126.70
2019-01-03T14:36:52.877Z,102125.36
2019-01-03T14:39:24.438Z,102118.44
2019-01-03T14:41:56.414Z,102123.86
2019-01-03T14:44:28.306Z,102124.50
2019-01-03T14:46:59.832Z,102133.34
2019-01-03T14:49:31.650Z,102129.28
2019-01-03T14:52:04.340Z,102116.83
2019-01-03T14:54:36.272Z,102116.83
2019-01-03T14:57:08.416Z,102126.61
2019-01-03T14:59:40.297Z,102132.50
2019-01-03T15:02:12.230Z,102131.80
2019-01-03T15:04:44.296Z,102128.83
2019-01-03T15:07:15.829Z,102125.56
2019-01-03T15:09:48.263Z,102128.39
2019-01-03T15:12:20.072Z,102127.53
2019-01-03T15:14:51.757Z,102133.39
2019-01-03T15:17:23.631Z,102133.25
2019-01-03T15:19:55.365Z,102140.36
2019-01-03T15:22:27.053Z,102140.36
2019-01-03T15:24:58.778Z,102148.19
2019-01-03T15:27:29.553Z,102153.60
2019-01-03T15:30:01.361Z,102142.84
2019-01-03T15:32:33.564Z,102142.84
2019-01-03T15:35:05.256Z,102146.16
2019-01-03T15:37:37.095Z,102142.84
2019-01-03T15:40:09.310Z,102154.02
2019-01-03T15:42:40.812Z,102148.10
2019-01-03T15:45:12.590Z,102156.75
2019-01-03T15:47:44.306Z,102152.64
2019-01-03T15:50:15.838Z,102152.64
2019-01-03T15:52:47.776Z,102161.79
2019-01-03T15:55:19.348Z,102166.61
2019-01-03T15:57:51.582Z,102167.11
2019-01-03T16:00:23.774Z,102152.92
2019-01-03T16:02:54.506Z,102152.92
2019-01-03T16:05:26.305Z,102162.56
2019-01-03T16:07:58.304Z,102173.38
2019-01-03T16:10:30.364Z,102170.41
2019-01-03T16:13:02.035Z,102172.57
2019-01-03T16:15:33.787Z,102174.39
2019-01-03T16:18:05.271Z,102174.49
2019-01-03T16:20:37.309Z,102179.56
2019-01-03T16:23:09.269Z,102176.61
2019-01-03T16:25:41.317Z,102184.81
2019-01-03T16:28:13.304Z,102184.23
2019-01-03T16:30:44.986Z,102187.97
2019-01-03T16:33:16.728Z,102185.48
2019-01-03T16:35:48.349Z,102191.05
2019-01-03T16:38:20.794Z,102189.23
2019-01-03T16:40:52.383Z,102184.65
2019-01-03T16:43:24.069Z,102182.18
2019-01-03T16:45:55.782Z,102190.69
2019-01-03T16:48:26.467Z,102190.45
2019-01-03T16:50:58.307Z,102189.84
2019-01-03T16:53:29.826Z,102186.97
2019-01-03T16:56:01.592Z,102186.47
2019-01-03T16:58:33.305Z,102179.80
2019-01-03T17:01:05.012Z,102179.80
2019-01-03T17:03:36.739Z,102191.91
2019-01-03T17:06:07.433Z,102200.30
2019-01-03T17:08:39.062Z,102197.69
2019-01-03T17:11:10.789Z,102203.01
2019-01-03T17:13:41.510Z,102196.22
2019-01-03T17:16:13.299Z,102191.30
2019-01-03T17:18:44.858Z,102194.61
2019-01-03T17:21:16.766Z,102203.50
2019-01-03T17:23:47.464Z,102201.16
2019-01-03T17:26:19.393Z,102200.05
2019-01-03T17:28:51.053Z,102195.58
2019-01-03T17:31:22.735Z,102202.45
2019-01-03T17:33:53.448Z,102201.40
2019-01-03T17:36:25.275Z,102206.83
2019-01-03T17:38:56.998Z,102200.65
2019-01-03T17:41:28.990Z,102199.05
2019-01-03T17:44:00.405Z,102191.15
2019-01-03T17:46:32.069Z,102197.94
2019-01-03T17:49:03.757Z,102197.08
2019-01-03T17:51:34.455Z,102193.87
2019-01-03T17:54:07.004Z,102189.66
2019-01-03T17:56:38.733Z,102188.94
2019-01-03T17:59:09.523Z,102178.95
2019-01-03T18:01:41.311Z,102167.54
2019-01-03T18:04:12.815Z,102167.54
2019-01-03T18:06:44.427Z,102178.87
2019-01-03T18:09:16.570Z,102179.48
2019-01-03T18:11:49.011Z,102177.70
2019-01-03T18:14:20.838Z,102177.70
2019-01-03T18:16:52.745Z,102179.50
2019-01-03T18:19:23.468Z,102185.08
2019-01-03T18:21:55.314Z,102188.30
2019-01-03T18:24:26.894Z,102189.80
2019-01-03T18:26:58.377Z,102184.88
2019-01-03T18:29:30.060Z,102186.34
2019-01-03T18:32:01.825Z,102191.16
2019-01-03T18:34:33.592Z,102190.05
2019-01-03T18:37:05.308Z,102191.41
2019-01-03T18:39:36.840Z,102191.41
2019-01-03T18:42:08.627Z,102197.44
2019-01-03T18:44:40.484Z,102188.19
2019-01-03T18:47:12.461Z,102188.19
2019-01-03T18:49:44.312Z,102202.40
2019-01-03T18:52:16.589Z,102208.30
2019-01-03T18:54:48.321Z,102210.14
2019-01-03T18:57:20.346Z,102210.14
2019-01-03T18:59:52.014Z,102206.28
2019-01-03T19:02:23.781Z,102205.05
2019-01-03T19:04:54.477Z,102212.69
2019-01-03T19:07:26.310Z,102215.52
2019-01-03T19:09:57.877Z,102210.33
2019-01-03T19:12:29.781Z,102219.73
2019-01-03T19:15:00.474Z,102210.06
2019-01-03T19:17:32.472Z,102216.66
2019-01-03T19:20:04.413Z,102222.96
2019-01-03T19:22:36.611Z,102211.84
2019-01-03T19:25:13.698Z,102204.39
2019-01-03T19:27:45.418Z,102204.39
2019-01-03T19:30:17.502Z,102224.97
2019-01-03T19:32:49.419Z,102223.75
2019-01-03T19:35:21.356Z,102224.09
2019-01-03T19:37:53.749Z,102214.45
2019-01-03T19:40:24.443Z,102221.05
2019-01-03T19:42:56.570Z,102220.29
2019-01-03T19:45:28.622Z,102219.66
2019-01-03T19:48:00.632Z,102224.16
2019-01-03T19:50:32.643Z,102229.89
2019-01-03T19:53:04.748Z,102236.23
2019-01-03T19:55:36.264Z,102236.23
2019-01-03T19:58:08.944Z,102240.78
2019-01-03T20:00:40.761Z,102250.23
2019-01-03T20:03:11.461Z,102248.88
2019-01-03T20:05:43.306Z,102250.34
2019-01-03T20:08:15.273Z,102254.30
2019-01-03T20:10:46.824Z,102253.30
2019-01-03T20:13:18.750Z,102251.94
2019-01-03T20:15:49.930Z,102255.16
2019-01-03T20:18:21.758Z,102247.37
2019-01-03T20:20:53.143Z,102242.55
2019-01-03T20:23:25.345Z,102245.50
2019-01-03T20:25:57.057Z,102239.73
2019-01-03T20:28:28.774Z,102239.58
2019-01-03T20:30:59.478Z,102242.91
2019-01-03T20:33:31.621Z,102247.47
2019-01-03T20:36:03.341Z,102246.10
2019-01-03T20:38:34.837Z,102246.10
2019-01-03T20:41:06.601Z,102250.16
2019-01-03T20:43:39.323Z,102233.98
2019-01-03T20:46:11.074Z,102233.98
2019-01-03T20:48:42.780Z,102241.27
2019-01-03T20:51:13.453Z,102233.11
2019-01-03T20:53:45.459Z,102238.03
2019-01-03T20:56:17.306Z,102242.00
2019-01-03T20:58:48.850Z,102230.14
2019-01-03T21:01:20.585Z,102229.15
2019-01-03T21:03:52.411Z,102223.95
2019-01-03T21:06:24.057Z,102223.95
2019-01-03T21:08:55.782Z,102229.41
2019-01-03T21:11:26.613Z,102237.16
2019-01-03T21:13:58.352Z,102222.23
2019-01-03T21:19:07.595Z,102232.60
2019-01-03T21:21:39.644Z,102244.06
2019-01-03T21:24:11.692Z,102231.23
2019-01-03T21:26:42.492Z,102231.23
2019-01-03T21:29:14.305Z,102233.41
2019-01-03T21:31:45.877Z,102230.78
2019-01-03T21:34:17.762Z,102223.49
2019-01-03T21:36:48.935Z,102226.84
2019-01-03T21:39:20.779Z,102223.34
2019-01-03T21:41:51.486Z,102220.21
2019-01-03T21:44:23.307Z,102222.31
2019-01-03T21:46:55.259Z,102234.87
2019-01-03T21:49:27.366Z,102227.20
2019-01-03T21:51:59.020Z,102223.02
2019-01-03T21:54:30.794Z,102227.92
2019-01-03T21:57:02.356Z,102226.25
2019-01-03T21:59:34.061Z,102223.44
2019-01-03T22:02:05.745Z,102226.22
2019-01-03T22:04:36.467Z,102221.28
2019-01-03T22:07:08.297Z,102221.78
2019-01-03T22:09:39.822Z,102217.00
2019-01-03T22:12:11.414Z,102221.67
2019-01-03T22:14:43.010Z,102219.87
2019-01-03T22:17:14.741Z,102209.03
2019-01-03T22:19:46.372Z,102218.70
2019-01-03T22:22:18.033Z,102215.13
2019-01-03T22:24:49.785Z,102218.36
2019-01-03T22:27:21.398Z,102216.25
2019-01-03T22:29:53.052Z,102216.72
2019-01-03T22:32:24.732Z,102214.69
2019-01-03T22:34:55.489Z,102213.54
2019-01-03T22:37:27.304Z,102215.97
2019-01-03T22:39:58.851Z,102217.73
2019-01-03T22:42:30.615Z,102207.36
2019-01-03T22:45:02.365Z,102212.52
2019-01-03T22:47:34.048Z,102212.52
2019-01-03T22:50:05.869Z,102220.08
2019-01-03T22:52:37.419Z,102230.37
2019-01-03T22:55:09.596Z,102221.91
2019-01-03T22:57:41.361Z,102234.95
2019-01-03T23:00:39.822Z,102234.95
2019-01-03T23:03:11.380Z,102235.09
2019-01-03T23:05:43.019Z,102232.92
2019-01-03T23:08:14.773Z,102240.77
2019-01-03T23:10:46.355Z,102240.70
2019-01-03T23:13:18.062Z,102234.95
2019-01-03T23:15:49.732Z,102226.44
2019-01-03T23:18:20.485Z,102225.34
2019-01-03T23:20:52.266Z,102222.27
2019-01-03T23:23:23.789Z,102211.23
2019-01-03T23:25:55.577Z,102211.30
2019-01-03T23:28:26.578Z,102218.67
2019-01-03T23:30:57.639Z,102220.66
2019-01-03T23:33:29.732Z,102221.22
2019-01-03T23:36:01.737Z,102221.22
2019-01-03T23:38:33.745Z,102224.02
2019-01-03T23:41:04.488Z,102229.67
2019-01-03T23:43:36.400Z,102226.80
2019-01-03T23:46:08.054Z,102223.33
2019-01-03T23:48:40.302Z,102214.25
2019-01-03T23:51:11.983Z,102212.34
2019-01-03T23:53:43.750Z,102210.13
2019-01-03T23:56:15.026Z,102205.89
2019-01-03T23:58:46.734Z,102207.19
